Time;durP1;ratioP1;P1;durP2;ratioP2;P2;SDS_P1;SDS_P2;PMS_P1;PMS_P2;Temp;Humidity;BMP_temperature;BMP_pressure;BME280_temperature;BME280_humidity;BME280_pressure;Samples;Min_cycle;Max_cycle;Signal;HPM_P1;HPM_P2
2024/04/09 00:00:46;;;;;;;6.13;3.65;;;15.00;99.90;;;;;;5390981;26;20030;-83
2024/04/09 00:03:13;;;;;;;5.55;3.15;;;15.00;99.90;;;;;;5328877;26;20003;-83
2024/04/09 00:05:40;;;;;;;7.10;3.60;;;15.00;99.90;;;;;;5334361;26;20006;-83
2024/04/09 00:08:16;;;;;;;7.78;4.05;;;15.00;99.90;;;;;;5311470;26;20340;-82
2024/04/09 00:10:43;;;;;;;5.43;3.03;;;15.00;99.90;;;;;;5422312;26;20105;-82
2024/04/09 00:13:09;;;;;;;6.22;3.72;;;15.00;99.90;;;;;;5397354;26;20350;-82
2024/04/09 00:15:36;;;;;;;5.95;3.42;;;14.90;99.90;;;;;;5336007;26;19996;-84
2024/04/09 00:18:11;;;;;;;5.68;3.58;;;14.90;99.90;;;;;;5362867;26;20013;-83
2024/04/09 00:20:39;;;;;;;9.13;3.67;;;14.90;99.90;;;;;;5397369;26;20004;-83
2024/04/09 00:23:06;;;;;;;7.68;3.35;;;14.90;99.90;;;;;;5334085;26;20011;-83
2024/04/09 00:25:32;;;;;;;9.68;3.85;;;14.80;99.90;;;;;;5336212;26;20010;-82
2024/04/09 00:27:59;;;;;;;5.97;2.88;;;14.90;99.90;;;;;;5360775;26;20481;-82
2024/04/09 00:30:27;;;;;;;8.85;3.85;;;14.80;99.90;;;;;;5359333;26;20003;-83
2024/04/09 00:32:54;;;;;;;5.97;3.05;;;14.80;99.90;;;;;;5357302;26;19999;-82
2024/04/09 00:35:21;;;;;;;5.97;3.40;;;14.80;99.90;;;;;;5389210;26;20011;-83
2024/04/09 00:37:51;;;;;;;5.75;3.05;;;14.80;99.90;;;;;;5360959;26;20022;-84
2024/04/09 00:40:24;;;;;;;7.20;3.75;;;14.80;99.90;;;;;;5337683;26;21241;-84
2024/04/09 00:42:52;;;;;;;7.72;3.33;;;14.80;99.90;;;;;;5369837;26;20003;-83
2024/04/09 00:45:22;;;;;;;6.22;2.88;;;14.70;99.90;;;;;;5368167;26;20020;-83
2024/04/09 00:47:50;;;;;;;5.30;3.63;;;14.80;99.90;;;;;;5362828;26;20339;-83
2024/04/09 00:50:19;;;;;;;4.40;3.13;;;14.80;99.90;;;;;;5368949;26;20492;-83
2024/04/09 00:52:48;;;;;;;5.85;4.20;;;14.80;99.90;;;;;;5367398;26;20007;-85
2024/04/09 00:55:15;;;;;;;5.32;2.75;;;14.80;99.90;;;;;;5391348;26;21148;-82
2024/04/09 00:57:48;;;;;;;5.45;3.30;;;14.80;99.90;;;;;;5401731;26;20011;-83
2024/04/09 01:00:15;;;;;;;5.80;3.58;;;14.80;99.90;;;;;;5337429;26;19999;-83
2024/04/09 01:02:43;;;;;;;3.75;2.67;;;14.80;99.90;;;;;;5369233;26;20454;-83
2024/04/09 01:05:12;;;;;;;7.95;4.35;;;14.70;99.90;;;;;;5311426;26;20014;-83
2024/04/09 01:07:39;;;;;;;5.85;4.40;;;14.70;99.90;;;;;;5311154;26;20013;-83
2024/04/09 01:10:05;;;;;;;6.03;3.47;;;14.60;99.90;;;;;;5339247;26;20007;-83
2024/04/09 01:12:32;;;;;;;9.35;5.57;;;14.60;99.90;;;;;;5397027;26;20029;-83
2024/04/09 01:14:58;;;;;;;8.85;4.80;;;14.60;99.90;;;;;;5336864;26;20254;-82
2024/04/09 01:17:25;;;;;;;11.48;5.47;;;14.50;99.90;;;;;;5336826;26;20507;-84
2024/04/09 01:19:51;;;;;;;8.52;4.30;;;14.50;99.90;;;;;;5363138;26;20003;-83
2024/04/09 01:22:18;;;;;;;5.70;4.03;;;14.40;99.90;;;;;;5371931;26;20001;-83
2024/04/09 01:24:44;;;;;;;5.10;3.45;;;14.40;99.90;;;;;;5336382;26;20014;-84
2024/04/09 01:27:17;;;;;;;5.68;3.55;;;14.40;99.90;;;;;;5342360;26;20036;-84
2024/04/09 01:29:43;;;;;;;5.25;3.05;;;14.40;99.90;;;;;;5361946;26;20000;-84
2024/04/09 01:32:10;;;;;;;5.30;2.60;;;14.30;99.90;;;;;;5344823;26;20010;-84
2024/04/09 01:34:37;;;;;;;5.35;2.83;;;14.30;99.90;;;;;;5368678;26;20551;-85
2024/04/09 01:37:04;;;;;;;6.57;2.40;;;14.30;99.90;;;;;;5367668;26;20327;-83
2024/04/09 01:39:35;;;;;;;5.57;3.05;;;14.30;99.90;;;;;;5345100;26;20007;-83
2024/04/09 01:42:03;;;;;;;5.18;2.65;;;14.30;99.90;;;;;;5311073;26;19999;-82
2024/04/09 01:44:29;;;;;;;5.03;3.92;;;14.30;99.90;;;;;;5367772;26;20025;-83
2024/04/09 01:46:55;;;;;;;5.50;3.63;;;14.30;99.90;;;;;;5367203;26;20007;-83
2024/04/09 01:49:23;;;;;;;6.03;4.00;;;14.30;99.90;;;;;;5366237;26;20493;-83
2024/04/09 01:51:50;;;;;;;6.53;4.03;;;14.30;99.90;;;;;;5333718;26;20018;-82
2024/04/09 01:54:16;;;;;;;7.20;4.13;;;14.30;99.90;;;;;;5395691;26;19995;-83
2024/04/09 01:56:43;;;;;;;6.25;3.28;;;14.30;99.90;;;;;;5372116;26;20462;-83
2024/04/09 01:59:11;;;;;;;8.40;3.75;;;14.30;99.90;;;;;;5333006;26;20409;-81
2024/04/09 02:01:41;;;;;;;4.75;2.80;;;14.30;99.90;;;;;;5314663;26;20003;-83
2024/04/09 02:04:07;;;;;;;4.43;2.90;;;14.40;99.90;;;;;;5398761;26;20007;-83
2024/04/09 02:06:35;;;;;;;4.03;2.85;;;14.30;99.90;;;;;;5374121;26;20007;-83
2024/04/09 02:09:02;;;;;;;5.32;3.53;;;14.40;99.90;;;;;;5341601;26;20009;-84
2024/04/09 02:11:28;;;;;;;4.47;2.88;;;14.40;99.90;;;;;;5313075;26;19999;-83
2024/04/09 02:13:55;;;;;;;4.07;2.15;;;14.40;99.90;;;;;;5368097;26;20431;-82
2024/04/09 02:16:22;;;;;;;3.97;2.58;;;14.40;99.90;;;;;;5401430;26;20033;-83
2024/04/09 02:18:49;;;;;;;4.28;2.72;;;14.30;99.90;;;;;;5401711;26;20003;-82
2024/04/09 02:21:15;;;;;;;5.68;2.35;;;14.30;99.90;;;;;;5403216;26;20025;-82
2024/04/09 02:23:42;;;;;;;4.22;2.45;;;14.20;99.90;;;;;;5331389;26;20000;-83
2024/04/09 02:26:09;;;;;;;4.10;2.60;;;14.20;99.90;;;;;;5334221;26;20014;-84
2024/04/09 02:28:35;;;;;;;3.42;1.95;;;14.20;99.90;;;;;;5336481;26;20353;-82
2024/04/09 02:31:04;;;;;;;7.57;2.40;;;14.10;99.90;;;;;;5309125;26;20010;-83
2024/04/09 02:33:31;;;;;;;5.32;2.30;;;14.10;99.90;;;;;;5335024;26;20022;-83
2024/04/09 02:36:05;;;;;;;5.03;2.72;;;14.10;99.90;;;;;;5367077;26;20003;-83
2024/04/09 02:38:36;;;;;;;4.70;2.78;;;14.10;99.90;;;;;;5367107;26;20018;-83
2024/04/09 02:41:04;;;;;;;5.65;2.63;;;14.10;99.90;;;;;;5338631;26;20039;-84
2024/04/09 02:43:30;;;;;;;3.67;1.80;;;14.10;99.90;;;;;;5397854;26;20010;-83
2024/04/09 02:45:58;;;;;;;3.10;1.85;;;14.10;99.90;;;;;;5366041;26;20070;-83
2024/04/09 02:48:25;;;;;;;4.40;1.70;;;14.10;99.90;;;;;;5367403;26;20003;-84
2024/04/09 02:50:53;;;;;;;4.30;2.20;;;14.20;99.90;;;;;;5370536;26;20010;-83
2024/04/09 02:53:20;;;;;;;4.40;1.80;;;14.20;99.90;;;;;;5337454;26;20011;-83
2024/04/09 02:55:46;;;;;;;3.80;2.05;;;14.20;99.90;;;;;;5334320;26;20009;-83
2024/04/09 02:58:13;;;;;;;4.05;1.73;;;14.20;99.90;;;;;;5334651;26;20365;-82
2024/04/09 03:00:40;;;;;;;4.38;1.80;;;14.20;99.90;;;;;;5365852;26;20011;-83
2024/04/09 03:03:07;;;;;;;3.67;1.90;;;14.20;99.90;;;;;;5424367;26;20010;-83
2024/04/09 03:05:34;;;;;;;4.18;2.00;;;14.20;99.90;;;;;;5364330;26;19998;-83
2024/04/09 03:08:00;;;;;;;6.15;1.88;;;14.20;99.90;;;;;;5341512;26;20009;-85
2024/04/09 03:10:33;;;;;;;3.70;1.48;;;14.20;99.90;;;;;;5307662;26;19999;-84
2024/04/09 03:12:59;;;;;;;;;;;14.20;99.90;;;;;;5335743;26;20017;-83
2024/04/09 03:15:26;;;;;;;4.43;1.92;;;14.20;99.90;;;;;;5343776;26;19925;-83
2024/04/09 03:17:53;;;;;;;4.25;1.80;;;14.20;99.90;;;;;;5401628;26;19999;-83
2024/04/09 03:20:19;;;;;;;3.70;1.30;;;14.20;99.90;;;;;;5373261;26;20011;-83
2024/04/09 03:22:45;;;;;;;5.95;2.13;;;14.20;99.90;;;;;;5305058;26;20013;-84
2024/04/09 03:25:11;;;;;;;5.35;2.20;;;14.10;99.90;;;;;;5336066;26;20014;-83
2024/04/09 03:27:38;;;;;;;6.50;2.03;;;14.20;99.90;;;;;;5409564;26;20378;-82
2024/04/09 03:30:05;;;;;;;4.07;1.67;;;14.10;99.90;;;;;;5373455;26;19998;-84
2024/04/09 03:32:31;;;;;;;5.30;1.90;;;14.20;99.90;;;;;;5340926;26;19999;-83
2024/04/09 03:34:58;;;;;;;4.43;1.48;;;14.10;99.90;;;;;;5397330;26;20002;-84
2024/04/09 03:37:25;;;;;;;4.95;1.95;;;14.10;99.90;;;;;;5343364;26;20003;-83
2024/04/09 03:39:51;;;;;;;4.50;1.30;;;14.20;99.90;;;;;;5365740;26;20003;-83
2024/04/09 03:42:17;;;;;;;5.15;2.00;;;14.20;99.90;;;;;;5338130;26;20421;-83
2024/04/09 03:44:44;;;;;;;5.93;2.30;;;14.20;99.90;;;;;;5402339;26;20011;-85
2024/04/09 03:47:10;;;;;;;6.72;2.28;;;14.20;99.90;;;;;;5401230;26;20008;-82
2024/04/09 03:49:37;;;;;;;4.65;2.28;;;14.20;99.90;;;;;;5375270;26;20003;-83
2024/04/09 03:52:03;;;;;;;6.30;2.45;;;14.20;99.90;;;;;;5399896;26;20007;-84
2024/04/09 03:54:31;;;;;;;4.47;3.08;;;14.20;99.90;;;;;;5370817;26;20448;-84
2024/04/09 03:57:03;;;;;;;4.93;2.78;;;14.20;99.90;;;;;;5370472;26;20007;-84
2024/04/09 03:59:33;;;;;;;7.05;4.38;;;14.20;99.90;;;;;;5373819;26;19995;-83
2024/04/09 04:02:00;;;;;;;4.88;3.45;;;14.30;99.90;;;;;;5335836;26;20017;-84
2024/04/09 04:04:27;;;;;;;8.60;5.15;;;14.20;99.90;;;;;;5362080;26;20003;-84
2024/04/09 04:06:53;;;;;;;7.07;4.40;;;14.20;99.90;;;;;;5396258;26;20017;-83
2024/04/09 04:09:23;;;;;;;5.97;4.57;;;14.20;99.90;;;;;;5333244;26;20000;-84
2024/04/09 04:11:50;;;;;;;7.18;4.95;;;14.20;99.90;;;;;;5335475;26;19999;-84
2024/04/09 04:14:17;;;;;;;6.45;5.00;;;14.20;99.90;;;;;;5339256;26;19998;-84
2024/04/09 04:16:43;;;;;;;11.93;7.28;;;14.20;99.90;;;;;;5367094;26;20021;-83
2024/04/09 04:19:09;;;;;;;7.53;6.18;;;14.20;99.90;;;;;;5341052;26;20011;-83
2024/04/09 04:21:36;;;;;;;12.55;9.90;;;14.20;99.90;;;;;;5363443;26;20012;-85
2024/04/09 04:24:02;;;;;;;13.27;10.07;;;14.30;99.90;;;;;;5341263;26;20082;-84
2024/04/09 04:26:28;;;;;;;10.73;9.38;;;14.30;99.90;;;;;;5396506;26;20003;-82
2024/04/09 04:28:55;;;;;;;14.98;10.90;;;14.30;99.90;;;;;;5305296;26;20709;-84
2024/04/09 04:31:23;;;;;;;18.40;12.57;;;14.30;99.90;;;;;;5336349;26;20030;-83
2024/04/09 04:33:50;;;;;;;22.35;12.75;;;14.30;99.90;;;;;;5365076;26;20007;-82
2024/04/09 04:36:18;;;;;;;13.70;11.07;;;14.30;99.90;;;;;;5369880;26;20308;-83
2024/04/09 04:38:46;;;;;;;14.95;11.23;;;14.30;99.90;;;;;;5369661;26;20022;-83
2024/04/09 04:41:13;;;;;;;18.15;12.98;;;14.30;99.90;;;;;;5362735;26;20524;-83
2024/04/09 04:43:40;;;;;;;16.98;13.15;;;14.30;99.90;;;;;;5398332;26;20010;-84
2024/04/09 04:46:07;;;;;;;19.58;15.85;;;14.30;99.90;;;;;;5393324;26;20003;-85
2024/04/09 04:48:34;;;;;;;18.40;15.30;;;14.30;99.90;;;;;;5341202;26;20033;-82
2024/04/09 04:51:01;;;;;;;20.02;15.23;;;14.30;99.90;;;;;;5336598;26;20007;-84
2024/04/09 04:53:27;;;;;;;15.13;12.30;;;14.20;99.90;;;;;;5365999;26;20002;-83
2024/04/09 04:55:53;;;;;;;19.02;14.63;;;14.20;99.90;;;;;;5337744;26;20452;-83
2024/04/09 04:58:20;;;;;;;21.52;16.77;;;14.20;99.90;;;;;;5398661;26;20470;-83
2024/04/09 05:00:46;;;;;;;16.70;13.90;;;14.20;99.90;;;;;;5395553;26;20022;-82
2024/04/09 05:03:12;;;;;;;18.83;15.07;;;14.20;99.90;;;;;;5311826;26;20014;-85
2024/04/09 05:05:39;;;;;;;17.70;15.77;;;14.20;99.90;;;;;;5361460;26;20494;-83
2024/04/09 05:08:06;;;;;;;22.42;18.80;;;14.10;99.90;;;;;;5365540;26;20395;-83
2024/04/09 05:10:32;;;;;;;19.15;16.25;;;14.10;99.90;;;;;;5336584;26;20000;-82
2024/04/09 05:12:59;;;;;;;20.65;16.95;;;14.10;99.90;;;;;;5399570;26;20006;-83
2024/04/09 05:15:26;;;;;;;17.33;15.43;;;14.10;99.90;;;;;;5364027;26;20312;-84
2024/04/09 05:17:53;;;;;;;16.30;14.23;;;14.00;99.90;;;;;;5368163;26;20480;-83
2024/04/09 05:20:25;;;;;;;13.75;12.45;;;14.00;99.90;;;;;;5340663;26;20570;-83
2024/04/09 05:22:51;;;;;;;;;;;14.00;99.90;;;;;;5339131;26;20004;-84
2024/04/09 05:25:18;;;;;;;13.48;11.70;;;13.90;99.90;;;;;;5367757;26;19924;-82
2024/04/09 05:27:46;;;;;;;13.73;12.32;;;13.90;99.90;;;;;;5338131;26;20547;-83
2024/04/09 05:30:13;;;;;;;15.57;12.80;;;13.90;99.90;;;;;;5362537;26;21068;-81
2024/04/09 05:32:43;;;;;;;14.40;12.85;;;13.90;99.90;;;;;;5340827;26;20011;-82
2024/04/09 05:35:11;;;;;;;15.57;13.93;;;13.90;99.90;;;;;;5397114;26;20488;-82
2024/04/09 05:37:38;;;;;;;16.02;13.80;;;14.00;99.90;;;;;;5341659;26;20014;-82
2024/04/09 05:40:08;;;;;;;17.42;14.75;;;13.90;99.90;;;;;;5369340;26;20011;-83
2024/04/09 05:42:44;;;;;;;20.77;18.13;;;14.00;99.90;;;;;;5397358;26;20223;-84
2024/04/09 05:45:12;;;;;;;18.75;16.75;;;13.90;99.90;;;;;;5363687;26;20310;-83
2024/04/09 05:47:38;;;;;;;18.95;16.85;;;13.90;99.90;;;;;;5333333;26;20017;-83
2024/04/09 05:50:05;;;;;;;19.20;17.20;;;13.90;99.90;;;;;;5335124;26;20004;-83
2024/04/09 05:52:32;;;;;;;19.35;17.02;;;13.90;99.90;;;;;;5337400;26;20025;-82
2024/04/09 05:54:58;;;;;;;17.02;15.25;;;13.90;99.90;;;;;;5333884;26;19999;-83
2024/04/09 05:57:25;;;;;;;15.23;13.65;;;13.90;99.90;;;;;;5340723;26;20011;-83
2024/04/09 05:59:54;;;;;;;13.48;12.07;;;13.80;99.90;;;;;;5371728;26;19999;-84
2024/04/09 06:02:21;;;;;;;13.30;10.98;;;13.80;99.90;;;;;;5345953;26;20007;-83
2024/04/09 06:04:48;;;;;;;11.68;9.10;;;13.80;99.90;;;;;;5366916;26;20004;-82
2024/04/09 06:07:14;;;;;;;10.50;9.18;;;13.70;99.90;;;;;;5342113;26;20030;-83
2024/04/09 06:09:41;;;;;;;8.02;6.78;;;13.70;99.90;;;;;;5372404;26;20452;-83
2024/04/09 06:12:07;;;;;;;7.90;6.63;;;13.70;99.90;;;;;;5368367;26;20003;-83
2024/04/09 06:14:34;;;;;;;6.78;5.85;;;13.70;99.90;;;;;;5365263;26;20007;-83
2024/04/09 06:17:00;;;;;;;7.97;6.15;;;13.70;99.90;;;;;;5406532;26;19999;-83
2024/04/09 06:19:27;;;;;;;6.20;5.57;;;13.70;99.90;;;;;;5395897;26;19996;-83
2024/04/09 06:21:53;;;;;;;7.68;5.60;;;13.70;99.90;;;;;;5368273;26;20006;-83
2024/04/09 06:24:19;;;;;;;5.60;5.10;;;13.70;99.90;;;;;;5310169;26;20377;-82
2024/04/09 06:26:46;;;;;;;5.43;4.65;;;13.70;99.90;;;;;;5340970;26;20021;-83
2024/04/09 06:29:12;;;;;;;4.95;4.38;;;13.70;99.90;;;;;;5354018;26;20374;-82
2024/04/09 06:31:38;;;;;;;5.65;4.47;;;13.70;99.90;;;;;;5375198;26;19999;-82
2024/04/09 06:34:05;;;;;;;7.82;4.55;;;13.70;99.90;;;;;;5411607;26;20354;-82
2024/04/09 06:36:31;;;;;;;4.22;3.83;;;13.70;99.90;;;;;;5399972;26;20447;-82
2024/04/09 06:38:58;;;;;;;5.72;4.32;;;13.70;99.90;;;;;;5352643;26;20014;-82
2024/04/09 06:41:24;;;;;;;5.25;4.07;;;13.60;99.90;;;;;;5402908;26;20004;-82
2024/04/09 06:43:50;;;;;;;5.47;3.58;;;13.60;99.90;;;;;;5369226;26;20414;-81
2024/04/09 06:46:17;;;;;;;5.47;4.15;;;13.60;99.90;;;;;;5347235;26;20018;-83
2024/04/09 06:48:43;;;;;;;9.07;4.90;;;13.70;99.90;;;;;;5347399;26;20009;-83
2024/04/09 06:51:11;;;;;;;6.50;3.80;;;13.70;99.90;;;;;;5348942;26;20417;-82
2024/04/09 06:53:37;;;;;;;5.30;3.33;;;13.70;99.90;;;;;;5314002;26;20010;-82
2024/04/09 06:56:04;;;;;;;3.50;1.92;;;13.80;99.90;;;;;;5343620;26;20396;-83
2024/04/09 06:58:30;;;;;;;5.40;1.60;;;13.80;99.90;;;;;;5345170;26;20007;-82
2024/04/09 07:00:57;;;;;;;2.20;1.20;;;13.80;99.90;;;;;;5314393;26;20022;-84
2024/04/09 07:03:24;;;;;;;4.88;0.77;;;13.80;99.90;;;;;;5348725;26;20013;-82
2024/04/09 07:05:50;;;;;;;3.10;0.80;;;13.90;99.90;;;;;;5382757;26;20002;-82
2024/04/09 07:08:16;;;;;;;2.40;0.70;;;13.90;99.90;;;;;;5440850;26;20011;-81
2024/04/09 07:10:43;;;;;;;1.90;0.55;;;13.90;99.90;;;;;;5410269;26;20003;-83
2024/04/09 07:13:10;;;;;;;2.83;0.60;;;13.80;99.90;;;;;;5371928;26;20037;-82
2024/04/09 07:15:36;;;;;;;5.50;0.50;;;13.80;99.90;;;;;;5407125;26;20021;-80
2024/04/09 07:18:03;;;;;;;4.75;0.60;;;13.80;99.90;;;;;;5347031;26;20014;-82
2024/04/09 07:20:29;;;;;;;5.18;0.57;;;13.70;99.90;;;;;;5344575;26;20018;-81
2024/04/09 07:22:56;;;;;;;3.53;0.50;;;13.60;99.90;;;;;;5372791;26;19999;-82
2024/04/09 07:25:23;;;;;;;4.30;0.40;;;13.50;99.90;;;;;;5341613;26;20360;-82
2024/04/09 07:27:49;;;;;;;2.97;0.45;;;13.40;99.90;;;;;;5371703;26;20003;-81
2024/04/09 07:30:16;;;;;;;5.43;0.60;;;13.40;99.90;;;;;;5375269;26;20003;-81
2024/04/09 07:32:42;;;;;;;3.15;0.52;;;13.40;99.90;;;;;;5321552;26;20010;-80
2024/04/09 07:35:09;;;;;;;4.72;0.50;;;13.40;99.90;;;;;;5373809;26;20003;-77
2024/04/09 07:37:35;;;;;;;2.78;0.50;;;13.40;99.90;;;;;;5380592;26;20017;-76
2024/04/09 07:40:01;;;;;;;2.85;0.40;;;13.40;99.90;;;;;;5377080;26;20634;-77
2024/04/09 07:42:28;;;;;;;3.90;0.40;;;13.30;99.90;;;;;;5408931;26;20309;-76
2024/04/09 07:44:54;;;;;;;3.85;0.40;;;13.30;99.90;;;;;;5376842;26;20348;-77
2024/04/09 07:47:21;;;;;;;3.25;0.40;;;13.20;99.90;;;;;;5408164;26;20372;-77
2024/04/09 07:49:48;;;;;;;2.97;0.75;;;13.30;99.90;;;;;;5374437;26;20004;-76
2024/04/09 07:52:15;;;;;;;3.35;0.50;;;13.30;99.90;;;;;;5376848;26;20011;-77
2024/04/09 07:54:41;;;;;;;4.50;0.68;;;13.30;99.90;;;;;;5409752;26;20021;-78
2024/04/09 07:57:14;;;;;;;5.88;2.22;;;13.40;99.90;;;;;;5401535;26;20528;-77
2024/04/09 07:59:42;;;;;;;4.88;1.60;;;13.40;99.90;;;;;;5413769;26;20017;-77
2024/04/09 08:02:09;;;;;;;5.20;1.50;;;13.50;99.90;;;;;;5405531;26;20364;-78
2024/04/09 08:04:37;;;;;;;2.95;0.65;;;13.60;99.90;;;;;;5344335;26;20017;-77
2024/04/09 08:07:03;;;;;;;3.53;0.47;;;13.60;99.90;;;;;;5403053;26;20010;-76
2024/04/09 08:09:31;;;;;;;4.03;0.80;;;13.70;99.90;;;;;;5381606;26;20445;-77
2024/04/09 08:11:57;;;;;;;3.03;0.50;;;13.80;99.90;;;;;;5375013;26;20014;-81
2024/04/09 08:14:24;;;;;;;5.07;0.50;;;13.80;99.90;;;;;;5339344;26;20012;-79
2024/04/09 08:16:51;;;;;;;5.32;0.50;;;13.80;99.90;;;;;;5368218;26;20122;-79
2024/04/09 08:19:17;;;;;;;3.05;0.38;;;13.70;99.90;;;;;;5370679;26;19999;-79
2024/04/09 08:21:43;;;;;;;5.95;0.40;;;13.70;99.90;;;;;;5340440;26;20528;-78
2024/04/09 08:24:09;;;;;;;3.40;0.30;;;13.70;99.90;;;;;;5366835;26;20350;-78
2024/04/09 08:26:36;;;;;;;4.78;0.40;;;13.70;99.90;;;;;;5365071;26;20003;-78
2024/04/09 08:29:04;;;;;;;4.30;0.47;;;13.70;99.90;;;;;;5337875;26;20006;-78
2024/04/09 08:31:33;;;;;;;4.28;0.40;;;13.60;99.90;;;;;;5402738;26;19999;-79
2024/04/09 08:34:00;;;;;;;4.28;0.85;;;13.70;99.90;;;;;;5346204;26;20118;-80
2024/04/09 08:36:27;;;;;;;2.38;0.40;;;13.70;99.90;;;;;;5404329;26;19999;-78
2024/04/09 08:38:54;;;;;;;2.33;0.50;;;13.80;99.90;;;;;;5347889;26;20453;-77
2024/04/09 08:41:22;;;;;;;1.80;0.30;;;13.90;99.90;;;;;;5381112;26;20582;-77
2024/04/09 08:43:49;;;;;;;6.22;1.50;;;14.00;99.90;;;;;;5400756;26;20003;-78
2024/04/09 08:46:16;;;;;;;5.82;1.00;;;14.20;99.90;;;;;;5375593;26;20306;-78
2024/04/09 08:48:44;;;;;;;5.25;0.93;;;14.20;99.90;;;;;;5378208;26;20005;-79
2024/04/09 08:51:11;;;;;;;3.45;0.60;;;14.30;99.90;;;;;;5376402;26;20004;-77
2024/04/09 08:53:39;;;;;;;2.90;0.65;;;14.30;99.90;;;;;;5345320;26;20623;-79
2024/04/09 08:56:06;;;;;;;3.78;0.40;;;14.40;99.90;;;;;;5374103;26;20003;-80
2024/04/09 08:58:33;;;;;;;5.18;1.63;;;14.50;99.90;;;;;;5343619;26;20003;-80
2024/04/09 09:01:00;;;;;;;5.40;0.95;;;14.50;99.90;;;;;;5403017;26;20513;-81
2024/04/09 09:03:27;;;;;;;4.00;0.60;;;14.60;99.90;;;;;;5371333;26;20009;-80
2024/04/09 09:06:05;;;;;;;3.95;0.32;;;14.60;99.90;;;;;;5407767;26;20013;-79
2024/04/09 09:08:39;;;;;;;3.72;0.40;;;14.70;99.90;;;;;;5401306;26;20007;-79
2024/04/09 09:11:06;;;;;;;4.20;0.40;;;14.70;99.90;;;;;;5401488;26;20770;-80
2024/04/09 09:13:32;;;;;;;4.07;0.40;;;14.70;99.90;;;;;;5378535;26;20010;-80
2024/04/09 09:15:59;;;;;;;5.03;0.40;;;14.80;99.90;;;;;;5376565;26;20002;-79
2024/04/09 09:18:27;;;;;;;4.28;0.40;;;14.90;99.90;;;;;;5383291;26;20007;-80
2024/04/09 09:21:00;;;;;;;3.08;0.35;;;15.10;99.90;;;;;;5349034;26;20020;-79
2024/04/09 09:23:27;;;;;;;3.65;0.40;;;15.30;99.90;;;;;;5344739;26;20014;-79
2024/04/09 09:25:55;;;;;;;3.22;0.60;;;15.40;99.90;;;;;;5408801;26;20401;-79
2024/04/09 09:28:22;;;;;;;3.75;0.88;;;15.50;99.90;;;;;;5378559;26;20368;-80
2024/04/09 09:30:49;;;;;;;4.35;0.45;;;15.40;99.90;;;;;;5350076;26;20021;-79
2024/04/09 09:33:26;;;;;;;3.92;0.40;;;15.40;99.90;;;;;;5343053;26;20022;-80
2024/04/09 09:35:54;;;;;;;6.78;0.40;;;15.30;99.90;;;;;;5397353;26;20014;-80
2024/04/09 09:38:29;;;;;;;3.45;0.40;;;15.40;99.90;;;;;;5376034;26;20003;-79
2024/04/09 09:40:57;;;;;;;4.05;0.30;;;15.40;99.90;;;;;;5370850;26;19999;-79
2024/04/09 09:43:24;;;;;;;2.03;0.30;;;15.20;99.90;;;;;;5376969;26;20010;-78
2024/04/09 09:45:51;;;;;;;2.45;0.40;;;15.20;99.90;;;;;;5375928;26;20022;-79
2024/04/09 09:48:20;;;;;;;4.53;0.45;;;15.20;99.90;;;;;;5316432;26;20005;-78
2024/04/09 09:50:47;;;;;;;4.70;0.50;;;15.30;99.90;;;;;;5409796;26;20047;-78
2024/04/09 09:53:14;;;;;;;4.68;0.50;;;15.40;99.90;;;;;;5368282;26;20377;-77
2024/04/09 09:55:42;;;;;;;4.53;1.05;;;15.40;99.90;;;;;;5375722;26;20003;-78
2024/04/09 09:58:17;;;;;;;5.50;0.88;;;15.30;99.90;;;;;;5405016;26;21001;-76
2024/04/09 10:00:45;;;;;;;6.43;0.80;;;15.00;99.90;;;;;;5339529;26;20050;-78
2024/04/09 10:03:12;;;;;;;3.25;0.85;;;14.90;99.90;;;;;;5373695;26;20007;-76
2024/04/09 10:05:39;;;;;;;3.40;0.47;;;14.80;99.90;;;;;;5394684;26;20015;-75
2024/04/09 10:08:22;;;;;;;4.72;0.57;;;14.90;99.90;;;;;;5331728;26;20004;-76
2024/04/09 10:10:50;;;;;;;3.75;0.90;;;15.10;99.90;;;;;;5422426;26;20006;-78
2024/04/09 10:13:24;;;;;;;2.28;0.60;;;15.20;99.90;;;;;;5388922;26;20015;-76
2024/04/09 10:15:50;;;;;;;3.70;0.47;;;15.40;99.90;;;;;;5393366;26;20010;-76
2024/04/09 10:18:38;;;;;;;4.10;0.60;;;15.60;99.90;;;;;;5342036;26;20015;-76
2024/04/09 10:21:04;;;;;;;3.55;0.50;;;15.80;99.90;;;;;;5366961;26;20849;-76
2024/04/09 10:23:36;;;;;;;7.32;1.15;;;15.80;99.90;;;;;;5368947;26;20004;-77
2024/04/09 10:26:05;;;;;;;4.40;1.17;;;15.80;99.90;;;;;;5305762;26;19999;-75
2024/04/09 10:28:34;;;;;;;4.25;0.70;;;15.70;99.90;;;;;;5362801;26;20629;-78
2024/04/09 10:31:05;;;;;;;5.55;0.57;;;15.70;99.90;;;;;;5388038;26;20773;-76
2024/04/09 10:33:33;;;;;;;4.90;0.60;;;15.70;99.90;;;;;;5396010;26;20480;-79
2024/04/09 10:36:07;;;;;;;5.57;1.17;;;15.70;99.90;;;;;;5398843;26;21693;-77
2024/04/09 10:38:37;;;;;;;2.35;0.50;;;15.80;99.90;;;;;;5366204;26;20011;-77
2024/04/09 10:41:04;;;;;;;3.35;0.52;;;16.00;99.90;;;;;;5396662;26;20004;-78
2024/04/09 10:43:33;;;;;;;4.13;0.50;;;16.20;99.90;;;;;;5335346;26;19996;-77
2024/04/09 10:46:00;;;;;;;4.40;0.75;;;16.30;99.90;;;;;;5369676;26;20126;-79
2024/04/09 10:48:26;;;;;;;6.25;1.25;;;16.20;99.90;;;;;;5308493;26;20014;-75
2024/04/09 10:50:53;;;;;;;4.18;0.93;;;16.30;99.90;;;;;;5370173;26;20007;-78
2024/04/09 10:53:20;;;;;;;6.72;0.35;;;16.50;99.90;;;;;;5365728;26;20002;-79
2024/04/09 10:55:46;;;;;;;5.32;0.60;;;16.70;99.90;;;;;;5338196;26;19998;-78
2024/04/09 10:58:14;;;;;;;3.58;0.40;;;16.70;99.90;;;;;;5374093;26;20029;-78
2024/04/09 11:00:43;;;;;;;6.00;1.08;;;16.80;99.90;;;;;;5370352;26;19999;-78
2024/04/09 11:03:11;;;;;;;4.40;0.90;;;16.80;99.90;;;;;;5371059;26;20010;-78
2024/04/09 11:05:39;;;;;;;3.80;0.70;;;16.80;99.90;;;;;;5397137;26;20011;-80
2024/04/09 11:08:08;;;;;;;5.50;0.40;;;16.70;99.90;;;;;;5404898;26;20017;-77
2024/04/09 11:10:34;;;;;;;3.38;0.60;;;16.50;99.90;;;;;;5336304;26;20003;-78
2024/04/09 11:13:01;;;;;;;4.80;1.58;;;16.40;99.90;;;;;;5371860;26;20003;-79
2024/04/09 11:15:27;;;;;;;4.10;0.93;;;16.30;99.90;;;;;;5337742;26;20037;-76
2024/04/09 11:17:54;;;;;;;2.05;0.50;;;16.30;99.90;;;;;;5367825;26;20026;-78
2024/04/09 11:20:22;;;;;;;3.05;0.30;;;16.20;99.90;;;;;;5365689;26;20053;-77
2024/04/09 11:22:51;;;;;;;1.88;0.28;;;16.10;99.90;;;;;;5337154;26;20012;-78
2024/04/09 11:25:22;;;;;;;2.15;0.32;;;16.40;99.90;;;;;;5362374;26;20018;-78
2024/04/09 11:27:51;;;;;;;3.58;0.43;;;16.70;99.90;;;;;;5405141;26;20025;-78
2024/04/09 11:30:24;;;;;;;3.13;0.30;;;16.70;99.90;;;;;;5404324;26;20078;-76
2024/04/09 11:32:54;;;;;;;;;;;16.60;99.90;;;;;;5412996;26;20010;-78
2024/04/09 11:35:26;;;;;;;1.65;0.20;;;16.40;99.90;;;;;;5368916;26;20274;-76
2024/04/09 11:37:55;;;;;;;2.53;0.40;;;16.40;99.90;;;;;;5342971;26;20026;-76
2024/04/09 11:40:29;;;;;;;3.50;0.32;;;16.40;99.90;;;;;;5395149;26;20022;-77
2024/04/09 11:42:57;;;;;;;2.78;0.30;;;16.50;99.90;;;;;;5368712;26;20009;-77
2024/04/09 11:45:29;;;;;;;2.97;0.30;;;16.50;99.90;;;;;;5340447;26;19995;-75
2024/04/09 11:47:58;;;;;;;2.13;0.22;;;16.70;99.90;;;;;;5400504;26;20006;-76
2024/04/09 11:50:25;;;;;;;2.97;0.60;;;16.90;99.90;;;;;;5343643;26;20017;-78
2024/04/09 11:52:52;;;;;;;2.25;0.30;;;17.10;99.90;;;;;;5374068;26;20521;-76
2024/04/09 11:55:19;;;;;;;3.30;0.30;;;17.40;99.90;;;;;;5397317;26;19998;-77
2024/04/09 11:57:46;;;;;;;2.45;0.20;;;17.80;99.90;;;;;;5346108;26;20008;-75
2024/04/09 12:00:14;;;;;;;1.13;0.30;;;17.80;98.70;;;;;;5376891;26;20011;-75
2024/04/09 12:02:41;;;;;;;2.30;0.20;;;17.70;98.40;;;;;;5406921;26;20002;-77
2024/04/09 12:05:08;;;;;;;1.67;0.20;;;17.60;98.70;;;;;;5396544;26;20003;-75
2024/04/09 12:07:34;;;;;;;2.28;0.30;;;17.30;98.70;;;;;;5393189;26;20011;-76
2024/04/09 12:10:00;;;;;;;2.08;0.50;;;17.10;98.60;;;;;;5371022;26;20349;-77
2024/04/09 12:12:27;;;;;;;2.03;0.40;;;16.90;98.70;;;;;;5365004;26;19999;-77
2024/04/09 12:14:54;;;;;;;1.50;0.20;;;16.70;98.70;;;;;;5311163;26;20007;-77
2024/04/09 12:17:20;;;;;;;2.53;0.38;;;16.50;98.70;;;;;;5438312;26;20032;-77
2024/04/09 12:19:47;;;;;;;1.45;0.20;;;16.40;98.90;;;;;;5370537;26;20004;-78
2024/04/09 12:22:16;;;;;;;3.40;0.30;;;16.50;99.00;;;;;;5345712;26;20003;-77
2024/04/09 12:24:44;;;;;;;2.08;0.47;;;16.50;99.00;;;;;;5338583;26;20354;-78
2024/04/09 12:27:11;;;;;;;4.32;0.20;;;16.40;98.70;;;;;;5404049;26;20505;-78
2024/04/09 12:29:37;;;;;;;1.42;0.20;;;16.30;98.80;;;;;;5343579;26;19998;-80
2024/04/09 12:32:06;;;;;;;2.63;0.30;;;16.20;99.00;;;;;;5405187;26;20003;-78
2024/04/09 12:34:33;;;;;;;2.65;0.30;;;16.00;99.00;;;;;;5373377;26;22032;-79
2024/04/09 12:37:00;;;;;;;4.28;0.40;;;16.00;98.50;;;;;;5371206;26;20017;-78
2024/04/09 12:39:30;;;;;;;4.18;0.40;;;15.90;98.50;;;;;;5314660;26;20037;-78
2024/04/09 12:42:00;;;;;;;2.55;0.30;;;15.80;98.90;;;;;;5402112;26;20014;-77
2024/04/09 12:44:27;;;;;;;2.13;0.30;;;15.90;98.90;;;;;;5367595;26;20017;-75
2024/04/09 12:46:53;;;;;;;2.25;0.20;;;15.80;99.20;;;;;;5402262;26;20303;-78